Time;durP1;ratioP1;P1;durP2;ratioP2;P2;SDS_P1;SDS_P2;PMS_P1;PMS_P2;Temp;Humidity;BMP_temperature;BMP_pressure;BME280_temperature;BME280_humidity;BME280_pressure;Samples;Min_cycle;Max_cycle;Signal;HPM_P1;HPM_P2
2022/03/25 00:02:06;;;;;;;26.90;21.48;;;11.40;50.70;;;;;;5055107;28;20698;-66
2022/03/25 00:04:33;;;;;;;25.75;20.80;;;11.40;50.60;;;;;;5054531;28;20320;-65
2022/03/25 00:07:00;;;;;;;24.92;19.77;;;11.40;50.40;;;;;;5054538;28;20224;-66
2022/03/25 00:09:27;;;;;;;26.35;21.25;;;11.30;50.40;;;;;;5054655;28;20224;-66
2022/03/25 00:11:54;;;;;;;26.90;20.90;;;11.30;50.60;;;;;;5055172;28;20565;-67
2022/03/25 00:14:21;;;;;;;27.65;22.65;;;11.30;50.80;;;;;;5055129;28;20232;-66
2022/03/25 00:16:49;;;;;;;31.60;21.40;;;11.30;50.90;;;;;;5055079;28;20239;-66
2022/03/25 00:19:16;;;;;;;30.33;20.73;;;11.30;51.00;;;;;;5054395;28;20278;-66
2022/03/25 00:21:43;;;;;;;26.55;21.45;;;11.20;51.20;;;;;;5055063;28;20654;-66
2022/03/25 00:24:10;;;;;;;32.10;22.00;;;11.20;51.30;;;;;;5054258;28;20232;-66
2022/03/25 00:26:36;;;;;;;30.45;21.30;;;11.20;51.40;;;;;;5054874;28;20251;-66
2022/03/25 00:29:04;;;;;;;24.33;20.42;;;11.20;51.50;;;;;;5054694;28;20682;-65
2022/03/25 00:31:31;;;;;;;23.17;18.60;;;11.20;51.50;;;;;;5054887;28;20307;-66
2022/03/25 00:33:59;;;;;;;31.42;22.13;;;11.10;51.50;;;;;;5054459;28;20236;-66
2022/03/25 00:36:26;;;;;;;23.20;20.40;;;11.10;51.80;;;;;;5054490;28;20220;-65
2022/03/25 00:38:53;;;;;;;28.75;22.33;;;11.10;52.00;;;;;;5054243;28;20220;-66
2022/03/25 00:41:23;;;;;;;27.45;21.67;;;11.00;52.10;;;;;;5054349;28;20242;-66
2022/03/25 00:43:51;;;;;;;26.48;21.45;;;11.00;52.10;;;;;;5054090;28;20266;-66
2022/03/25 00:46:19;;;;;;;25.67;22.35;;;11.00;52.40;;;;;;5054346;28;20235;-66
2022/03/25 00:48:49;;;;;;;28.92;20.98;;;11.00;52.50;;;;;;5040370;28;20221;-65
2022/03/25 00:51:17;;;;;;;30.77;23.63;;;11.00;52.60;;;;;;5054175;28;20236;-65
2022/03/25 00:53:47;;;;;;;27.42;20.00;;;11.00;52.60;;;;;;5054263;28;20232;-66
2022/03/25 00:56:14;;;;;;;27.65;20.98;;;11.00;52.80;;;;;;5053493;28;20235;-65
2022/03/25 00:58:42;;;;;;;31.52;23.35;;;10.90;52.70;;;;;;5054545;28;20597;-65
2022/03/25 01:01:09;;;;;;;28.58;21.02;;;10.90;52.60;;;;;;5053571;28;20225;-65
2022/03/25 01:03:41;;;;;;;38.45;26.48;;;10.90;52.80;;;;;;5054314;28;20579;-67
2022/03/25 01:06:08;;;;;;;31.08;23.50;;;10.90;52.70;;;;;;5054008;28;20240;-65
2022/03/25 01:08:36;;;;;;;31.73;25.30;;;10.90;52.70;;;;;;5053848;28;20236;-65
2022/03/25 01:11:05;;;;;;;32.42;23.33;;;10.90;52.70;;;;;;5053760;28;20224;-66
2022/03/25 01:13:33;;;;;;;28.30;21.83;;;10.80;52.70;;;;;;5053552;28;20217;-66
2022/03/25 01:16:01;;;;;;;31.05;22.98;;;10.80;52.80;;;;;;5053788;28;20304;-65
2022/03/25 01:18:28;;;;;;;27.98;24.70;;;10.80;52.70;;;;;;5053248;28;20544;-65
2022/03/25 01:20:55;;;;;;;30.40;23.65;;;10.80;52.80;;;;;;5053815;28;20668;-65
2022/03/25 01:23:22;;;;;;;32.83;24.98;;;10.70;52.90;;;;;;5052873;28;20306;-65
2022/03/25 01:25:50;;;;;;;31.05;24.17;;;10.70;53.00;;;;;;5053317;28;20216;-65
2022/03/25 01:28:20;;;;;;;34.20;24.52;;;10.70;53.20;;;;;;5047530;28;20221;-66
2022/03/25 01:30:47;;;;;;;40.25;31.05;;;10.60;53.10;;;;;;5053228;28;20224;-65
2022/03/25 01:33:15;;;;;;;34.50;26.67;;;10.60;53.40;;;;;;5051513;28;20225;-65
2022/03/25 01:35:42;;;;;;;29.52;24.85;;;10.60;53.40;;;;;;5050561;28;20224;-65
2022/03/25 01:38:09;;;;;;;34.22;24.75;;;10.60;53.50;;;;;;5050864;28;20220;-65
2022/03/25 01:40:36;;;;;;;26.40;22.35;;;10.60;53.60;;;;;;5051549;28;20221;-65
2022/03/25 01:43:07;;;;;;;28.60;23.00;;;10.60;53.60;;;;;;5052005;28;20244;-65
2022/03/25 01:45:36;;;;;;;30.05;25.73;;;10.60;53.80;;;;;;5050914;28;20812;-65
2022/03/25 01:48:08;;;;;;;31.02;23.65;;;10.60;54.00;;;;;;5049100;28;20264;-65
2022/03/25 01:50:36;;;;;;;29.95;24.02;;;10.60;54.10;;;;;;5051972;28;20899;-65
2022/03/25 01:53:03;;;;;;;32.33;25.75;;;10.60;54.10;;;;;;5053450;28;20555;-66
2022/03/25 01:55:38;;;;;;;33.20;25.80;;;10.60;54.10;;;;;;5052415;28;20695;-66
2022/03/25 01:58:07;;;;;;;37.30;29.33;;;10.60;54.30;;;;;;5053671;28;20227;-66
2022/03/25 02:00:34;;;;;;;33.20;26.27;;;10.60;54.50;;;;;;5052783;28;20229;-65
2022/03/25 02:03:01;;;;;;;36.78;27.17;;;10.60;54.50;;;;;;5053404;28;20242;-66
2022/03/25 02:05:28;;;;;;;37.28;25.52;;;10.60;54.60;;;;;;5052780;28;20220;-66
2022/03/25 02:07:55;;;;;;;33.85;24.30;;;10.60;54.50;;;;;;5053232;28;20220;-66
2022/03/25 02:10:22;;;;;;;32.55;25.20;;;10.50;54.50;;;;;;5052772;28;20279;-66
2022/03/25 02:12:49;;;;;;;31.40;24.05;;;10.50;54.60;;;;;;5053204;28;20235;-65
2022/03/25 02:15:17;;;;;;;29.63;24.33;;;10.50;54.60;;;;;;5052689;28;20236;-65
2022/03/25 02:17:44;;;;;;;26.05;22.13;;;10.50;54.60;;;;;;5053264;28;20279;-65
2022/03/25 02:20:12;;;;;;;30.85;23.08;;;10.50;54.60;;;;;;5052912;28;20220;-65
2022/03/25 02:22:41;;;;;;;28.83;23.33;;;10.50;54.60;;;;;;5047166;28;20229;-65
2022/03/25 02:25:10;;;;;;;26.23;22.13;;;10.40;54.60;;;;;;5052985;28;20258;-65
2022/03/25 02:27:38;;;;;;;31.40;21.90;;;10.40;54.60;;;;;;5045454;28;20221;-65
2022/03/25 02:30:07;;;;;;;32.42;23.75;;;10.40;54.50;;;;;;5052577;28;20221;-65
2022/03/25 02:32:35;;;;;;;29.48;23.08;;;10.40;54.50;;;;;;5052215;28;20263;-65
2022/03/25 02:35:02;;;;;;;26.13;22.42;;;10.40;54.50;;;;;;5052627;28;20228;-65
2022/03/25 02:37:29;;;;;;;31.50;22.05;;;10.40;54.50;;;;;;5052204;28;20236;-65
2022/03/25 02:39:57;;;;;;;29.38;22.58;;;10.40;54.60;;;;;;5052784;28;20216;-65
2022/03/25 02:42:24;;;;;;;28.02;21.58;;;10.40;54.80;;;;;;5051853;28;20311;-65
2022/03/25 02:44:51;;;;;;;30.05;22.88;;;10.30;54.80;;;;;;5052421;28;20235;-65
2022/03/25 02:47:19;;;;;;;30.88;23.40;;;10.30;55.00;;;;;;5048394;28;20224;-65
2022/03/25 02:49:46;;;;;;;29.23;23.23;;;10.30;55.30;;;;;;5032840;28;20218;-66
2022/03/25 02:52:13;;;;;;;30.77;22.08;;;10.30;55.30;;;;;;5049042;28;20605;-66
2022/03/25 02:54:40;;;;;;;30.80;23.80;;;10.30;55.30;;;;;;5051979;28;20221;-66
2022/03/25 02:57:09;;;;;;;30.05;23.67;;;10.30;55.60;;;;;;5051855;28;20247;-64
2022/03/25 02:59:36;;;;;;;28.88;23.75;;;10.20;55.70;;;;;;5052173;28;20278;-66
2022/03/25 03:02:03;;;;;;;29.25;23.38;;;10.20;55.80;;;;;;5052515;28;20221;-65
2022/03/25 03:04:30;;;;;;;32.28;24.25;;;10.20;55.90;;;;;;5052210;28;20687;-66
2022/03/25 03:06:59;;;;;;;32.75;23.05;;;10.20;55.90;;;;;;5052418;28;20702;-66
2022/03/25 03:09:26;;;;;;;34.30;24.73;;;10.20;55.90;;;;;;5051981;28;20225;-66
2022/03/25 03:11:53;;;;;;;30.08;23.42;;;10.20;55.80;;;;;;5052289;28;20224;-66
2022/03/25 03:14:22;;;;;;;34.35;24.58;;;10.20;55.80;;;;;;5052158;28;20678;-66
2022/03/25 03:16:49;;;;;;;29.75;23.33;;;10.20;56.00;;;;;;5039398;28;20255;-66
2022/03/25 03:19:16;;;;;;;30.95;22.60;;;10.20;56.20;;;;;;5052388;28;20224;-66
2022/03/25 03:21:43;;;;;;;32.33;23.95;;;10.20;56.10;;;;;;5051173;28;20225;-66
2022/03/25 03:24:10;;;;;;;31.70;23.00;;;10.20;56.00;;;;;;5051923;28;20324;-66
2022/03/25 03:26:37;;;;;;;29.02;21.92;;;10.20;56.10;;;;;;5051455;28;20216;-66
2022/03/25 03:29:06;;;;;;;35.42;25.90;;;10.20;55.90;;;;;;5046847;28;20728;-65
2022/03/25 03:31:35;;;;;;;31.13;23.60;;;10.20;55.90;;;;;;5051923;28;20252;-65
2022/03/25 03:34:02;;;;;;;29.13;21.88;;;10.20;55.90;;;;;;5052064;28;20248;-65
2022/03/25 03:36:28;;;;;;;26.77;21.17;;;10.20;55.80;;;;;;5052010;28;20262;-65
2022/03/25 03:38:55;;;;;;;29.15;21.30;;;10.10;55.70;;;;;;5052391;28;20224;-64
2022/03/25 03:41:22;;;;;;;26.73;22.42;;;10.10;56.00;;;;;;5051746;28;20240;-65
2022/03/25 03:43:49;;;;;;;29.55;23.65;;;10.10;56.00;;;;;;5052036;28;20232;-65
2022/03/25 03:46:16;;;;;;;29.15;23.20;;;10.10;56.10;;;;;;5052331;28;20220;-65
2022/03/25 03:48:44;;;;;;;31.95;23.98;;;10.00;55.90;;;;;;5050628;28;20729;-65
2022/03/25 03:51:11;;;;;;;25.33;21.00;;;10.00;56.00;;;;;;5051977;28;20244;-64
2022/03/25 03:53:38;;;;;;;29.70;22.05;;;10.00;56.00;;;;;;5051524;28;20701;-64
2022/03/25 03:56:06;;;;;;;27.23;21.75;;;9.90;56.80;;;;;;5051023;28;20225;-65
2022/03/25 03:58:33;;;;;;;25.30;20.77;;;9.90;56.80;;;;;;5051601;28;20229;-65
2022/03/25 04:00:59;;;;;;;27.73;22.13;;;9.90;56.90;;;;;;5051888;28;20225;-65
2022/03/25 04:03:29;;;;;;;25.52;20.65;;;9.90;57.00;;;;;;5051266;28;20654;-65
2022/03/25 04:05:57;;;;;;;25.08;19.77;;;9.90;57.10;;;;;;5052312;28;20612;-65
2022/03/25 04:08:27;;;;;;;28.13;23.63;;;9.90;57.20;;;;;;5053791;28;20235;-65
2022/03/25 04:10:54;;;;;;;27.48;22.52;;;9.80;57.30;;;;;;5055574;28;20228;-65
2022/03/25 04:13:21;;;;;;;27.00;19.52;;;9.80;57.50;;;;;;5055531;28;20224;-65
2022/03/25 04:15:47;;;;;;;26.70;20.83;;;9.80;57.50;;;;;;5055209;28;20974;-65
2022/03/25 04:18:15;;;;;;;28.45;22.33;;;9.80;57.50;;;;;;5055271;28;20213;-65
2022/03/25 04:20:46;;;;;;;27.42;20.75;;;9.80;57.50;;;;;;5050696;28;20230;-65
2022/03/25 04:23:14;;;;;;;29.80;22.30;;;9.70;57.50;;;;;;5051062;28;20247;-65
2022/03/25 04:25:41;;;;;;;31.08;20.98;;;9.70;57.50;;;;;;5054886;28;20284;-65
2022/03/25 04:28:09;;;;;;;27.38;21.05;;;9.70;57.70;;;;;;5055071;28;20212;-65
2022/03/25 04:30:38;;;;;;;30.58;21.80;;;9.60;57.80;;;;;;5054761;28;20282;-65
2022/03/25 04:33:05;;;;;;;21.85;17.95;;;9.60;58.00;;;;;;5054987;28;20251;-64
2022/03/25 04:35:33;;;;;;;27.67;21.45;;;9.60;58.30;;;;;;5054528;28;20224;-65
2022/03/25 04:38:02;;;;;;;28.25;21.40;;;9.60;58.10;;;;;;5054930;28;20252;-65
2022/03/25 04:40:31;;;;;;;27.30;20.15;;;9.60;58.20;;;;;;5054447;28;20307;-65
2022/03/25 04:42:59;;;;;;;27.45;20.55;;;9.60;58.30;;;;;;5055007;28;20229;-65
2022/03/25 04:45:28;;;;;;;28.00;22.17;;;9.50;58.30;;;;;;5054298;28;20229;-64
2022/03/25 04:47:55;;;;;;;31.05;22.83;;;9.50;58.40;;;;;;5050597;28;20220;-64
2022/03/25 04:50:23;;;;;;;28.48;22.05;;;9.40;58.60;;;;;;5054816;28;20259;-64
2022/03/25 04:52:50;;;;;;;32.63;21.63;;;9.40;58.60;;;;;;5054035;28;20977;-64
2022/03/25 04:55:18;;;;;;;28.65;21.02;;;9.40;58.70;;;;;;5054334;28;20228;-64
2022/03/25 04:57:47;;;;;;;25.95;20.42;;;9.40;58.80;;;;;;5041236;28;20231;-64
2022/03/25 05:00:15;;;;;;;30.40;21.95;;;9.40;58.90;;;;;;5052488;28;20231;-64
2022/03/25 05:02:43;;;;;;;30.10;23.65;;;9.40;59.10;;;;;;5053136;28;20252;-64
2022/03/25 05:05:09;;;;;;;31.27;21.90;;;9.40;59.30;;;;;;5053809;28;20240;-64
2022/03/25 05:07:40;;;;;;;33.58;24.80;;;9.40;59.40;;;;;;5053759;28;20235;-64
2022/03/25 05:10:08;;;;;;;33.10;23.88;;;9.30;59.60;;;;;;5054123;28;20304;-64
2022/03/25 05:12:35;;;;;;;30.65;21.90;;;9.30;59.80;;;;;;5054070;28;20244;-64
2022/03/25 05:15:04;;;;;;;28.83;22.08;;;9.30;59.90;;;;;;5054264;28;20232;-63
2022/03/25 05:17:31;;;;;;;32.30;23.90;;;9.30;60.20;;;;;;5053842;28;20235;-64
2022/03/25 05:19:58;;;;;;;28.45;21.65;;;9.30;60.40;;;;;;5053447;28;20327;-64
2022/03/25 05:22:25;;;;;;;28.80;22.42;;;9.30;60.50;;;;;;5053726;28;20241;-64
2022/03/25 05:24:52;;;;;;;29.90;23.35;;;9.30;60.60;;;;;;5053732;28;20231;-64
2022/03/25 05:27:19;;;;;;;28.50;22.50;;;9.30;60.80;;;;;;5053985;28;20213;-65
2022/03/25 05:29:46;;;;;;;31.70;22.27;;;9.30;61.00;;;;;;5053594;28;20235;-64
2022/03/25 05:32:15;;;;;;;29.23;22.27;;;9.30;61.00;;;;;;5053811;28;20571;-65
2022/03/25 05:34:42;;;;;;;27.98;21.70;;;9.30;61.10;;;;;;5053566;28;20282;-65
2022/03/25 05:37:09;;;;;;;30.33;22.55;;;9.30;61.00;;;;;;5053762;28;20256;-65
2022/03/25 05:39:37;;;;;;;24.23;20.08;;;9.30;61.50;;;;;;5053470;28;20274;-64
2022/03/25 05:42:08;;;;;;;29.35;21.17;;;9.30;61.50;;;;;;5053714;28;20228;-65
2022/03/25 05:44:35;;;;;;;25.48;20.73;;;9.30;61.60;;;;;;5053493;28;20552;-64
2022/03/25 05:47:02;;;;;;;30.67;22.70;;;9.30;61.60;;;;;;5053838;28;20233;-65
2022/03/25 05:49:30;;;;;;;29.20;22.20;;;9.30;61.70;;;;;;5042019;28;20231;-65
2022/03/25 05:51:57;;;;;;;32.25;23.30;;;9.30;61.80;;;;;;5053149;28;20620;-65
2022/03/25 05:54:24;;;;;;;28.75;22.45;;;9.40;61.90;;;;;;5053544;28;20221;-64
2022/03/25 05:56:51;;;;;;;28.27;19.65;;;9.30;61.80;;;;;;5052956;28;20308;-64
2022/03/25 05:59:18;;;;;;;29.73;21.58;;;9.40;61.90;;;;;;5053586;28;20220;-64
2022/03/25 06:01:45;;;;;;;28.77;22.45;;;9.40;61.90;;;;;;5053103;28;20308;-65
2022/03/25 06:04:11;;;;;;;32.13;22.08;;;9.50;61.90;;;;;;5053300;28;20216;-65
2022/03/25 06:06:39;;;;;;;29.65;22.83;;;9.50;61.80;;;;;;5052772;28;20216;-64
2022/03/25 06:09:06;;;;;;;28.38;23.02;;;9.50;61.80;;;;;;5053429;28;20310;-64
2022/03/25 06:11:33;;;;;;;38.90;27.90;;;9.50;61.80;;;;;;5053127;28;20225;-64
2022/03/25 06:14:00;;;;;;;36.33;28.48;;;9.60;61.80;;;;;;5052899;28;20213;-65
2022/03/25 06:16:27;;;;;;;34.40;23.58;;;9.60;61.70;;;;;;5053175;28;20231;-64
2022/03/25 06:18:55;;;;;;;34.53;21.60;;;9.60;61.60;;;;;;5052689;28;20721;-64
2022/03/25 06:21:22;;;;;;;35.30;24.30;;;9.70;61.50;;;;;;5052855;28;20233;-65
2022/03/25 06:23:50;;;;;;;34.88;24.00;;;9.70;61.50;;;;;;5052449;28;20307;-65
2022/03/25 06:26:18;;;;;;;28.92;21.60;;;9.70;61.40;;;;;;5052879;28;20225;-64
2022/03/25 06:28:44;;;;;;;31.25;21.60;;;9.80;61.40;;;;;;5044643;28;20225;-64
2022/03/25 06:31:11;;;;;;;31.92;22.50;;;9.80;61.50;;;;;;5052607;28;20228;-64
2022/03/25 06:33:39;;;;;;;30.00;22.40;;;9.90;61.50;;;;;;5052622;28;20229;-64
2022/03/25 06:36:07;;;;;;;32.13;21.83;;;9.90;61.30;;;;;;5052780;28;20220;-65
2022/03/25 06:38:34;;;;;;;36.63;27.35;;;10.00;59.90;;;;;;5052964;28;20224;-65
2022/03/25 06:41:03;;;;;;;29.52;21.92;;;10.00;59.70;;;;;;5052171;28;20220;-64
2022/03/25 06:43:29;;;;;;;29.42;22.95;;;10.10;59.60;;;;;;5052868;28;20235;-64
2022/03/25 06:45:56;;;;;;;30.73;22.73;;;10.20;59.60;;;;;;5052311;28;20225;-64
2022/03/25 06:48:23;;;;;;;34.03;24.55;;;10.20;59.40;;;;;;5043931;28;20569;-64
2022/03/25 06:50:51;;;;;;;36.17;26.25;;;10.30;59.30;;;;;;5051378;28;20233;-65
2022/03/25 06:53:18;;;;;;;36.03;25.25;;;10.30;59.20;;;;;;5052553;28;20565;-65
2022/03/25 06:55:46;;;;;;;33.70;22.88;;;10.40;59.10;;;;;;5051886;28;20574;-65
2022/03/25 06:58:15;;;;;;;30.90;22.48;;;10.40;58.60;;;;;;5052503;28;20224;-64
2022/03/25 07:00:42;;;;;;;27.77;21.60;;;10.50;58.30;;;;;;5038759;28;20225;-65
2022/03/25 07:03:11;;;;;;;28.48;20.33;;;10.50;58.00;;;;;;5052659;28;20555;-64
2022/03/25 07:05:38;;;;;;;34.85;25.38;;;10.60;57.80;;;;;;5039789;28;20240;-64
2022/03/25 07:08:06;;;;;;;48.67;34.45;;;10.70;57.60;;;;;;5051842;28;20216;-64
2022/03/25 07:10:34;;;;;;;48.97;34.30;;;10.70;57.60;;;;;;5052298;28;20229;-64
2022/03/25 07:13:01;;;;;;;62.05;36.50;;;10.80;57.60;;;;;;5051985;28;20224;-64
2022/03/25 07:15:30;;;;;;;47.33;34.53;;;10.80;57.50;;;;;;5052093;28;20706;-64
2022/03/25 07:17:56;;;;;;;46.35;31.35;;;10.90;57.50;;;;;;5051631;28;20237;-64
2022/03/25 07:20:26;;;;;;;46.45;27.42;;;10.90;57.30;;;;;;5052187;28;20221;-64
2022/03/25 07:22:54;;;;;;;38.33;27.25;;;11.00;57.20;;;;;;5051234;28;20248;-64
2022/03/25 07:25:21;;;;;;;37.95;25.52;;;11.00;57.20;;;;;;5050083;28;20228;-64
2022/03/25 07:27:49;;;;;;;33.60;24.25;;;11.00;57.00;;;;;;5047458;28;20714;-64
2022/03/25 07:30:17;;;;;;;33.65;24.88;;;11.10;57.00;;;;;;5052224;28;20341;-63
2022/03/25 07:32:46;;;;;;;36.53;23.33;;;11.20;56.90;;;;;;5051734;28;20238;-64
2022/03/25 07:35:14;;;;;;;36.33;25.48;;;11.30;56.90;;;;;;5052321;28;20283;-64
2022/03/25 07:37:42;;;;;;;33.15;25.60;;;11.30;56.90;;;;;;5051938;28;20266;-64
2022/03/25 07:40:12;;;;;;;46.20;31.60;;;11.40;57.00;;;;;;5051612;28;20208;-64
2022/03/25 07:42:40;;;;;;;45.28;32.40;;;11.50;57.20;;;;;;5053247;28;20240;-64
2022/03/25 07:45:08;;;;;;;47.25;32.55;;;11.50;57.20;;;;;;5055844;28;20218;-64
2022/03/25 07:47:35;;;;;;;41.38;28.38;;;11.60;57.30;;;;;;5053559;28;20225;-64
2022/03/25 07:50:04;;;;;;;40.97;28.30;;;11.70;57.30;;;;;;5046946;28;20225;-64
2022/03/25 07:52:31;;;;;;;38.03;29.02;;;11.70;57.40;;;;;;5055816;28;20220;-64
2022/03/25 07:54:57;;;;;;;36.25;25.73;;;11.80;57.50;;;;;;5055184;28;20220;-64
2022/03/25 07:57:24;;;;;;;31.90;23.63;;;11.90;57.50;;;;;;5055788;28;20241;-64
2022/03/25 07:59:51;;;;;;;32.88;24.23;;;12.00;57.30;;;;;;5055252;28;20574;-64
2022/03/25 08:02:18;;;;;;;34.10;23.75;;;12.10;57.30;;;;;;5055872;28;20229;-65
2022/03/25 08:04:45;;;;;;;28.80;22.60;;;12.10;57.20;;;;;;5055705;28;20248;-64
2022/03/25 08:07:13;;;;;;;28.73;21.73;;;12.20;57.20;;;;;;5055391;28;20220;-64
2022/03/25 08:09:40;;;;;;;29.05;21.55;;;12.30;57.20;;;;;;5055450;28;20232;-65
2022/03/25 08:12:07;;;;;;;27.85;20.63;;;12.40;57.10;;;;;;5055086;28;20232;-64
2022/03/25 08:14:35;;;;;;;30.10;22.20;;;12.50;57.10;;;;;;5055589;28;20594;-64
2022/03/25 08:17:01;;;;;;;30.17;24.17;;;12.50;57.00;;;;;;5055085;28;20229;-64
2022/03/25 08:19:30;;;;;;;32.67;23.95;;;12.60;57.00;;;;;;5055423;28;20226;-65
2022/03/25 08:21:57;;;;;;;32.47;24.92;;;12.70;56.80;;;;;;5054220;28;20233;-64
2022/03/25 08:29:50;;;;;;;41.58;29.90;;;12.90;56.40;;;;;;5046109;28;20224;-64
2022/03/25 08:32:17;;;;;;;29.27;22.80;;;13.00;56.10;;;;;;5055139;28;20244;-64
2022/03/25 08:34:44;;;;;;;36.92;25.77;;;13.00;56.00;;;;;;5055005;28;20282;-65
2022/03/25 08:37:11;;;;;;;33.80;23.52;;;13.10;55.60;;;;;;5054553;28;20228;-64
2022/03/25 08:39:39;;;;;;;30.35;22.08;;;13.20;55.70;;;;;;5055004;28;20220;-65
2022/03/25 08:42:08;;;;;;;35.10;24.92;;;13.30;55.70;;;;;;5054346;28;20225;-65
2022/03/25 08:44:35;;;;;;;31.85;23.63;;;13.30;55.70;;;;;;5054954;28;20224;-65
2022/03/25 08:47:03;;;;;;;36.92;27.55;;;13.40;55.70;;;;;;5054326;28;20303;-66
2022/03/25 08:49:32;;;;;;;34.88;24.77;;;13.50;55.80;;;;;;5046032;28;20229;-64
2022/03/25 08:51:59;;;;;;;33.92;24.20;;;13.60;55.70;;;;;;5054154;28;20232;-65
2022/03/25 08:54:26;;;;;;;29.95;23.83;;;13.60;55.70;;;;;;5054704;28;20229;-65
2022/03/25 08:56:54;;;;;;;32.10;23.85;;;13.60;55.70;;;;;;5054229;28;20252;-65
2022/03/25 08:59:21;;;;;;;28.42;22.83;;;13.70;55.80;;;;;;5054918;28;20248;-65
2022/03/25 09:01:48;;;;;;;36.60;26.65;;;13.80;55.90;;;;;;5054435;28;20232;-65
2022/03/25 09:04:15;;;;;;;34.05;25.65;;;13.90;56.00;;;;;;5054062;28;20299;-64
2022/03/25 09:06:41;;;;;;;37.57;27.40;;;14.00;56.00;;;;;;5054517;28;20228;-64
2022/03/25 09:09:08;;;;;;;38.95;27.10;;;14.10;56.00;;;;;;5054127;28;21007;-65
2022/03/25 09:11:35;;;;;;;34.55;26.17;;;14.10;56.00;;;;;;5054507;28;20237;-64
2022/03/25 09:14:05;;;;;;;37.05;28.00;;;14.20;56.00;;;;;;5053910;28;20279;-64
2022/03/25 09:16:32;;;;;;;32.00;24.73;;;14.20;56.00;;;;;;5041500;28;20225;-64
2022/03/25 09:18:59;;;;;;;39.53;30.40;;;14.30;56.00;;;;;;5053829;28;20578;-64
2022/03/25 09:21:26;;;;;;;38.83;27.52;;;14.40;56.10;;;;;;5054219;28;20972;-65
2022/03/25 09:23:55;;;;;;;34.55;26.90;;;14.50;56.30;;;;;;5053475;28;20243;-65
2022/03/25 09:26:23;;;;;;;41.73;27.40;;;14.50;56.20;;;;;;5054275;28;20694;-65
2022/03/25 09:28:53;;;;;;;44.75;28.98;;;14.60;56.30;;;;;;5049948;28;20470;-65
2022/03/25 09:31:21;;;;;;;41.92;29.10;;;14.60;56.30;;;;;;5053973;28;20229;-65
2022/03/25 09:33:48;;;;;;;41.38;30.02;;;14.70;56.40;;;;;;5053958;28;20228;-65
2022/03/25 09:36:15;;;;;;;36.72;28.08;;;14.70;56.30;;;;;;5053645;28;20236;-65
2022/03/25 09:38:42;;;;;;;33.88;26.30;;;14.80;56.50;;;;;;5053849;28;20229;-66
2022/03/25 09:41:09;;;;;;;30.83;25.60;;;14.90;56.50;;;;;;5053510;28;20228;-64
2022/03/25 09:43:37;;;;;;;37.50;26.57;;;14.90;56.60;;;;;;5053623;28;20463;-65
2022/03/25 09:46:04;;;;;;;34.80;25.20;;;14.90;56.60;;;;;;5053436;28;20505;-64
2022/03/25 09:48:32;;;;;;;29.40;24.90;;;15.00;56.40;;;;;;5044147;28;20491;-65
2022/03/25 09:50:59;;;;;;;34.10;25.73;;;15.10;56.40;;;;;;5053275;28;20471;-64
2022/03/25 09:53:29;;;;;;;38.10;27.30;;;15.20;56.40;;;;;;5053526;28;20467;-64
2022/03/25 09:55:56;;;;;;;40.47;29.03;;;15.20;56.40;;;;;;5053684;28;20472;-64
2022/03/25 09:58:23;;;;;;;36.83;27.70;;;15.20;57.10;;;;;;5053176;28;20471;-64
2022/03/25 10:00:51;;;;;;;38.00;26.33;;;15.30;56.60;;;;;;5053499;28;20545;-64
2022/03/25 10:03:26;;;;;;;41.67;28.73;;;15.30;56.60;;;;;;5052922;28;20464;-63
2022/03/25 10:06:01;;;;;;;34.50;27.00;;;15.40;56.60;;;;;;5052919;28;20949;-64
2022/03/25 10:08:31;;;;;;;36.50;27.50;;;15.40;56.60;;;;;;5040609;28;20454;-65
2022/03/25 10:11:13;;;;;;;34.90;26.80;;;15.50;56.50;;;;;;5053188;28;20502;-65
2022/03/25 10:13:40;;;;;;;33.77;25.97;;;15.50;56.30;;;;;;5053426;28;20467;-64
2022/03/25 10:16:26;;;;;;;38.27;26.20;;;15.60;56.40;;;;;;5052733;28;20462;-65
2022/03/25 10:18:54;;;;;;;36.50;27.77;;;15.70;56.30;;;;;;5052600;28;20478;-65
2022/03/25 10:21:22;;;;;;;34.50;25.97;;;15.70;56.30;;;;;;5052806;28;20544;-64
2022/03/25 10:23:49;;;;;;;40.10;29.70;;;15.70;56.20;;;;;;5052475;28;20460;-64
2022/03/25 10:26:16;;;;;;;36.13;30.33;;;15.80;56.50;;;;;;5053007;28;20475;-64
2022/03/25 10:28:44;;;;;;;45.03;30.87;;;15.90;56.60;;;;;;5052125;28;20547;-64
2022/03/25 10:31:14;;;;;;;38.00;28.90;;;15.90;56.40;;;;;;5052805;28;20459;-64
2022/03/25 10:33:45;;;;;;;32.53;26.87;;;15.90;56.40;;;;;;5052732;28;20503;-64
2022/03/25 10:36:14;;;;;;;34.87;26.70;;;16.00;56.50;;;;;;5052395;28;20538;-64
2022/03/25 10:38:48;;;;;;;32.27;26.40;;;16.00;56.50;;;;;;5052579;28;20467;-65
2022/03/25 10:41:16;;;;;;;40.83;30.43;;;16.10;56.50;;;;;;5052510;28;21255;-65
2022/03/25 10:43:59;;;;;;;35.97;27.03;;;16.10;56.40;;;;;;5052539;28;20482;-65
2022/03/25 10:46:35;;;;;;;39.47;28.10;;;16.20;56.20;;;;;;5052996;28;20579;-65
2022/03/25 10:49:05;;;;;;;44.23;29.80;;;16.30;56.10;;;;;;5041072;28;21289;-65
2022/03/25 10:51:32;;;;;;;34.87;25.23;;;16.30;56.40;;;;;;5052583;28;20927;-65
2022/03/25 10:54:02;;;;;;;47.17;28.30;;;16.30;56.30;;;;;;5052090;28;20475;-64
2022/03/25 10:56:41;;;;;;;41.93;28.70;;;16.40;56.20;;;;;;5050456;28;20969;-64
2022/03/25 10:59:21;;;;;;;38.33;29.40;;;16.40;56.00;;;;;;5051949;28;20451;-64
2022/03/25 11:01:48;;;;;;;34.13;27.67;;;16.40;55.90;;;;;;5051992;28;21141;-64
2022/03/25 11:04:16;;;;;;;33.90;25.77;;;16.50;55.90;;;;;;5052511;28;20475;-65
2022/03/25 11:06:44;;;;;;;30.80;25.10;;;16.50;56.30;;;;;;5052422;28;20485;-64
2022/03/25 11:09:13;;;;;;;29.87;25.03;;;16.50;55.70;;;;;;5052237;28;20463;-65
2022/03/25 11:11:42;;;;;;;30.40;24.37;;;16.60;55.70;;;;;;5052449;28;21017;-64
2022/03/25 11:14:09;;;;;;;34.50;25.70;;;16.60;55.90;;;;;;5051804;28;20477;-65
2022/03/25 11:16:40;;;;;;;36.17;27.57;;;16.70;55.80;;;;;;5052509;28;20471;-65
2022/03/25 11:19:09;;;;;;;39.47;29.67;;;16.70;55.80;;;;;;5055601;28;20436;-64
2022/03/25 11:21:39;;;;;;;38.30;23.90;;;16.80;55.90;;;;;;5056341;28;20553;-64
2022/03/25 11:24:08;;;;;;;36.13;25.90;;;16.80;55.90;;;;;;5055903;28;20471;-64
2022/03/25 11:26:39;;;;;;;24.80;21.00;;;16.80;56.30;;;;;;5056590;28;20485;-66
2022/03/25 11:29:10;;;;;;;27.70;21.83;;;16.90;55.70;;;;;;5042806;28;20463;-64
2022/03/25 11:32:04;;;;;;;35.60;26.23;;;16.90;55.60;;;;;;5056187;28;20481;-64
2022/03/25 11:34:31;;;;;;;33.23;24.20;;;16.90;55.70;;;;;;5056234;28;20481;-64
2022/03/25 11:37:17;;;;;;;33.60;23.87;;;17.00;55.60;;;;;;5056234;28;20465;-65
2022/03/25 11:39:44;;;;;;;42.53;24.97;;;17.00;55.70;;;;;;5055751;28;20467;-65
2022/03/25 11:42:38;;;;;;;31.77;23.67;;;17.00;55.60;;;;;;5055902;28;20487;-65
2022/03/25 11:45:35;;;;;;;30.87;23.73;;;17.10;55.40;;;;;;5056392;28;20562;-65
2022/03/25 11:48:34;;;;;;;27.00;21.67;;;17.10;55.40;;;;;;5049960;28;20483;-65
2022/03/25 11:51:01;;;;;;;31.70;24.10;;;17.10;55.40;;;;;;5053442;28;20534;-65
2022/03/25 11:53:33;;;;;;;24.63;19.10;;;17.10;55.40;;;;;;5044914;28;21046;-64
2022/03/25 11:56:02;;;;;;;25.20;21.63;;;17.10;55.30;;;;;;5055212;28;20461;-65
2022/03/25 11:58:32;;;;;;;24.87;19.80;;;17.20;55.30;;;;;;5055962;28;20474;-64
2022/03/25 12:01:03;;;;;;;25.63;18.87;;;17.20;55.40;;;;;;5055367;28;20577;-65
2022/03/25 12:03:44;;;;;;;17.20;15.20;;;17.30;55.40;;;;;;5055843;28;20469;-65
2022/03/25 12:06:11;;;;;;;21.60;14.40;;;17.30;55.00;;;;;;5055165;28;20472;-64
2022/03/25 12:08:39;;;;;;;16.13;12.77;;;17.30;54.80;;;;;;5055501;28;20483;-64
2022/03/25 12:11:07;;;;;;;23.20;15.27;;;17.30;54.60;;;;;;5042171;28;20994;-64
2022/03/25 12:14:10;;;;;;;21.27;15.00;;;17.40;54.40;;;;;;5055504;28;20962;-64
2022/03/25 12:17:00;;;;;;;17.33;13.50;;;17.40;54.10;;;;;;5055484;28;20481;-65
2022/03/25 12:19:48;;;;;;;18.07;14.50;;;17.40;54.20;;;;;;5043456;28;20567;-64
2022/03/25 12:22:33;;;;;;;20.40;16.40;;;17.40;54.30;;;;;;5055192;28;20467;-64
2022/03/25 12:25:23;;;;;;;23.70;15.80;;;17.40;54.20;;;;;;5055422;28;20462;-63
2022/03/25 12:27:55;;;;;;;17.93;16.03;;;17.40;54.00;;;;;;5035827;28;20459;-64
2022/03/25 12:30:23;;;;;;;19.80;16.17;;;17.40;54.00;;;;;;5052854;28;21272;-64
2022/03/25 12:32:52;;;;;;;18.80;15.20;;;17.40;54.20;;;;;;5055292;28;20468;-64
2022/03/25 12:35:21;;;;;;;21.03;15.80;;;17.40;54.20;;;;;;5054829;28;20456;-63
2022/03/25 12:37:57;;;;;;;16.07;14.10;;;17.40;54.00;;;;;;5055223;28;20535;-64
2022/03/25 12:40:26;;;;;;;18.07;14.27;;;17.50;53.90;;;;;;5054624;28;20485;-65
2022/03/25 12:42:57;;;;;;;16.73;14.70;;;17.50;53.80;;;;;;5054996;28;20463;-65